createdAt,value
2017-10-19T00:00:23.765Z,15.20
2017-10-19T00:02:52.003Z,14.67
2017-10-19T00:05:19.492Z,14.40
2017-10-19T00:07:46.954Z,15.17
2017-10-19T00:10:15.207Z,14.70
2017-10-19T00:12:42.681Z,14.70
2017-10-19T00:15:11.108Z,14.00
2017-10-19T00:17:38.602Z,15.33
2017-10-19T00:20:06.079Z,14.40
2017-10-19T00:22:34.312Z,14.27
2017-10-19T00:25:01.776Z,14.33
2017-10-19T00:27:29.245Z,14.27
2017-10-19T00:29:56.725Z,13.97
2017-10-19T00:32:24.977Z,14.37
2017-10-19T00:34:53.214Z,14.40
2017-10-19T00:37:20.699Z,15.90
2017-10-19T00:39:48.280Z,15.03
2017-10-19T00:42:15.755Z,15.67
2017-10-19T00:44:44.024Z,15.90
2017-10-19T00:47:12.270Z,14.67
2017-10-19T00:49:39.725Z,15.13
2017-10-19T00:52:07.212Z,15.47
2017-10-19T00:54:35.453Z,15.87
2017-10-19T00:57:03.104Z,15.50
2017-10-19T00:59:30.597Z,14.67
2017-10-19T01:01:58.076Z,15.10
2017-10-19T01:04:26.319Z,15.60
2017-10-19T01:06:53.818Z,14.60
2017-10-19T01:09:21.283Z,14.60
2017-10-19T01:11:48.753Z,14.33
2017-10-19T01:14:16.218Z,16.07
2017-10-19T01:16:43.722Z,15.50
2017-10-19T01:19:11.962Z,16.07
2017-10-19T01:21:39.422Z,15.13
2017-10-19T01:24:07.009Z,15.40
2017-10-19T01:26:34.477Z,14.50
2017-10-19T01:29:02.731Z,13.67
2017-10-19T01:31:31.779Z,13.73
2017-10-19T01:33:59.249Z,15.53
2017-10-19T01:36:26.729Z,15.47
2017-10-19T01:38:54.203Z,15.90
2017-10-19T01:41:21.790Z,15.37
2017-10-19T01:43:49.253Z,15.67
2017-10-19T01:46:16.729Z,15.67
2017-10-19T01:48:44.346Z,13.70
2017-10-19T01:51:12.586Z,15.60
2017-10-19T01:53:40.073Z,15.50
2017-10-19T01:56:07.537Z,16.27
2017-10-19T01:58:35.760Z,15.83
2017-10-19T02:01:04.052Z,15.90
2017-10-19T02:03:31.532Z,15.87
2017-10-19T02:05:58.990Z,16.83
2017-10-19T02:08:26.527Z,16.47
2017-10-19T02:10:53.992Z,16.23
2017-10-19T02:13:21.478Z,17.23
2017-10-19T02:15:49.711Z,16.60
2017-10-19T02:18:17.181Z,16.80
2017-10-19T02:20:44.702Z,16.50
2017-10-19T02:23:12.169Z,15.77
2017-10-19T02:25:39.640Z,17.40
2017-10-19T02:28:07.226Z,17.20
2017-10-19T02:30:34.706Z,16.37
2017-10-19T02:33:02.932Z,16.37
2017-10-19T02:35:30.403Z,17.60
2017-10-19T02:37:59.386Z,16.30
2017-10-19T02:40:26.993Z,15.90
2017-10-19T02:42:54.454Z,17.03
2017-10-19T02:45:21.934Z,17.07
2017-10-19T02:47:49.391Z,16.70
2017-10-19T02:50:16.942Z,17.17
2017-10-19T02:52:44.401Z,17.43
2017-10-19T02:55:11.873Z,16.10
2017-10-19T02:57:39.357Z,18.03
2017-10-19T03:00:08.380Z,18.63
2017-10-19T03:02:36.620Z,16.07
2017-10-19T03:05:04.094Z,17.77
2017-10-19T03:07:32.332Z,17.50
2017-10-19T03:09:59.802Z,17.53
2017-10-19T03:12:27.309Z,18.70
2017-10-19T03:14:54.787Z,18.63
2017-10-19T03:17:22.249Z,18.93
2017-10-19T03:19:49.725Z,18.80
2017-10-19T03:22:17.177Z,17.60
2017-10-19T03:24:44.659Z,17.30
2017-10-19T03:27:13.661Z,19.20
2017-10-19T03:29:41.138Z,18.13
2017-10-19T03:32:08.597Z,17.10
2017-10-19T03:34:36.193Z,18.23
2017-10-19T03:37:03.652Z,18.40
2017-10-19T03:39:31.288Z,18.23
2017-10-19T03:41:58.758Z,17.80
2017-10-19T03:44:26.217Z,17.27
2017-10-19T03:46:53.701Z,17.63
2017-10-19T03:49:21.169Z,18.40
2017-10-19T03:51:49.543Z,18.10
2017-10-19T03:54:17.776Z,18.77
2017-10-19T03:56:45.272Z,18.73
2017-10-19T03:59:12.844Z,18.63
2017-10-19T04:01:40.318Z,17.80
2017-10-19T04:04:08.543Z,18.27
2017-10-19T04:06:36.038Z,18.93
2017-10-19T04:09:03.505Z,17.17
2017-10-19T04:11:31.744Z,18.50
2017-10-19T04:13:59.817Z,19.43
2017-10-19T04:16:27.292Z,18.33
2017-10-19T04:18:55.539Z,17.80
2017-10-19T04:21:23.031Z,18.57
2017-10-19T04:23:51.303Z,17.20
2017-10-19T04:26:18.765Z,19.33
2017-10-19T04:28:47.034Z,19.53
2017-10-19T04:31:14.509Z,18.17
2017-10-19T04:33:42.740Z,19.00
2017-10-19T04:36:10.478Z,18.63
2017-10-19T04:38:37.952Z,17.83
2017-10-19T04:41:05.453Z,20.20
2017-10-19T04:43:33.681Z,18.27
2017-10-19T04:46:01.159Z,18.87
2017-10-19T04:48:28.629Z,17.50
2017-10-19T04:50:56.872Z,16.70
2017-10-19T04:53:24.357Z,19.10
2017-10-19T04:55:51.840Z,19.30
2017-10-19T04:58:20.097Z,18.97
2017-10-19T05:00:47.573Z,18.70
2017-10-19T05:03:15.945Z,19.83
2017-10-19T05:05:44.177Z,20.47
2017-10-19T05:08:11.664Z,18.27
2017-10-19T05:10:39.142Z,17.87
2017-10-19T05:13:07.373Z,18.50
2017-10-19T05:15:34.962Z,19.10
2017-10-19T05:18:03.197Z,18.37
2017-10-19T05:20:30.682Z,18.97
2017-10-19T05:22:58.329Z,19.47
2017-10-19T05:25:25.793Z,19.37
2017-10-19T05:27:53.285Z,18.43
2017-10-19T05:30:21.537Z,19.77
2017-10-19T05:32:49.149Z,19.53
2017-10-19T05:35:16.621Z,18.77
2017-10-19T05:37:44.108Z,19.30
2017-10-19T05:40:11.572Z,19.00
2017-10-19T05:42:39.842Z,19.73
2017-10-19T05:45:07.306Z,21.03
2017-10-19T05:47:35.548Z,20.80
2017-10-19T05:50:04.770Z,20.03
2017-10-19T05:52:35.545Z,20.23
2017-10-19T05:55:03.026Z,19.17
2017-10-19T05:57:30.572Z,20.97
2017-10-19T05:59:58.039Z,20.67
2017-10-19T06:02:25.535Z,21.00
2017-10-19T06:04:53.010Z,20.40
2017-10-19T06:07:21.248Z,19.60
2017-10-19T06:09:48.734Z,20.70
2017-10-19T06:12:16.969Z,20.90
2017-10-19T06:14:44.465Z,20.93
2017-10-19T06:17:12.709Z,22.07
2017-10-19T06:19:40.190Z,21.20
2017-10-19T06:22:07.698Z,20.77
2017-10-19T06:24:35.216Z,20.87
2017-10-19T06:27:03.450Z,20.87
2017-10-19T06:29:30.941Z,20.87
2017-10-19T06:31:59.184Z,20.40
2017-10-19T06:34:26.682Z,19.43
2017-10-19T06:36:54.929Z,20.07
2017-10-19T06:39:22.380Z,20.47
2017-10-19T06:41:49.884Z,19.80
2017-10-19T06:44:18.142Z,19.60
2017-10-19T06:46:46.529Z,19.67
2017-10-19T06:49:14.765Z,19.50
2017-10-19T06:51:42.249Z,19.33
2017-10-19T06:54:09.837Z,18.73
2017-10-19T06:56:37.321Z,17.57
2017-10-19T06:59:04.811Z,18.17
2017-10-19T07:01:32.277Z,17.77
2017-10-19T07:03:59.761Z,18.70
2017-10-19T07:06:27.989Z,16.90
2017-10-19T07:08:55.472Z,18.47
2017-10-19T07:11:23.072Z,17.63
2017-10-19T07:13:50.555Z,18.73
2017-10-19T07:16:18.031Z,19.10
2017-10-19T07:18:45.554Z,18.87
2017-10-19T07:21:13.027Z,18.37
2017-10-19T07:23:40.710Z,18.20
2017-10-19T07:26:08.938Z,17.47
2017-10-19T07:28:36.414Z,19.27
2017-10-19T07:31:03.904Z,17.50
2017-10-19T07:33:32.870Z,18.10
2017-10-19T07:36:00.352Z,17.20
2017-10-19T07:38:27.817Z,18.07
2017-10-19T07:40:56.090Z,17.33
2017-10-19T07:43:24.321Z,19.67
2017-10-19T07:45:51.785Z,18.90
2017-10-19T07:48:19.273Z,17.23
2017-10-19T07:50:48.287Z,17.97
2017-10-19T07:53:16.589Z,18.73
2017-10-19T07:55:44.050Z,17.67
2017-10-19T07:58:11.609Z,18.10
2017-10-19T08:00:39.134Z,17.83
2017-10-19T08:03:08.207Z,18.30
2017-10-19T08:05:35.680Z,18.53
2017-10-19T08:08:03.922Z,19.40
2017-10-19T08:10:31.402Z,18.70
2017-10-19T08:12:59.381Z,20.30
2017-10-19T08:15:27.612Z,18.50
2017-10-19T08:17:55.076Z,20.47
2017-10-19T08:20:22.567Z,20.40
2017-10-19T08:22:50.119Z,21.10
2017-10-19T08:25:17.718Z,20.57
2017-10-19T08:27:45.189Z,20.20
2017-10-19T08:30:12.649Z,20.23
2017-10-19T08:32:40.121Z,20.00
2017-10-19T08:35:07.822Z,20.43
2017-10-19T08:37:36.044Z,22.90
2017-10-19T08:40:03.523Z,21.63
2017-10-19T08:42:30.997Z,20.37
2017-10-19T08:44:58.480Z,21.40
2017-10-19T08:47:26.036Z,20.10
2017-10-19T08:49:53.523Z,22.50
2017-10-19T08:52:21.000Z,19.43
2017-10-19T08:54:48.483Z,20.13
2017-10-19T08:57:15.942Z,21.37
2017-10-19T08:59:43.425Z,20.70
2017-10-19T09:02:11.658Z,20.40
2017-10-19T09:04:39.130Z,19.73
2017-10-19T09:07:06.597Z,19.90
2017-10-19T09:09:34.853Z,20.77
2017-10-19T09:12:02.335Z,20.57
2017-10-19T09:14:30.670Z,20.70
2017-10-19T09:16:58.152Z,21.53
2017-10-19T09:19:25.610Z,21.50
2017-10-19T09:21:53.174Z,21.90
2017-10-19T09:24:22.064Z,20.20
2017-10-19T09:26:49.526Z,17.57
2017-10-19T09:29:17.786Z,20.70
2017-10-19T09:31:45.250Z,19.97
2017-10-19T09:34:12.735Z,20.03
2017-10-19T09:36:40.203Z,19.30
2017-10-19T09:39:07.671Z,20.30
2017-10-19T09:41:35.158Z,17.30
2017-10-19T09:44:02.663Z,17.43
2017-10-19T09:46:30.122Z,18.90
2017-10-19T09:48:58.080Z,18.10
2017-10-19T09:51:26.421Z,16.60
2017-10-19T09:53:54.265Z,16.83
2017-10-19T09:56:21.761Z,17.53
2017-10-19T09:58:49.212Z,17.80
2017-10-19T10:01:16.692Z,17.87
2017-10-19T10:03:44.925Z,17.87
2017-10-19T10:06:12.393Z,17.07
2017-10-19T10:08:39.869Z,16.40
2017-10-19T10:11:08.105Z,17.80
2017-10-19T10:13:35.586Z,17.50
2017-10-19T10:16:03.174Z,16.73
2017-10-19T10:18:31.433Z,17.47
2017-10-19T10:20:59.653Z,17.03
2017-10-19T10:23:27.144Z,16.60
2017-10-19T10:25:56.129Z,16.60
2017-10-19T10:28:23.628Z,15.67
2017-10-19T10:30:51.885Z,15.73
2017-10-19T10:33:19.343Z,17.17
2017-10-19T10:35:46.805Z,16.60
2017-10-19T10:38:15.257Z,15.40
2017-10-19T10:40:42.727Z,16.43
2017-10-19T10:43:10.962Z,17.03
2017-10-19T10:45:38.413Z,15.90
2017-10-19T10:48:05.893Z,14.77
2017-10-19T10:50:33.353Z,14.23
2017-10-19T10:53:00.834Z,14.23
2017-10-19T10:55:28.309Z,14.43
2017-10-19T10:57:56.566Z,13.07
2017-10-19T11:00:24.028Z,14.23
2017-10-19T11:02:51.494Z,13.67
2017-10-19T11:05:19.737Z,13.93
2017-10-19T11:07:47.200Z,13.50
2017-10-19T11:10:15.442Z,14.30
2017-10-19T11:12:42.914Z,12.83
2017-10-19T11:15:10.509Z,15.33
2017-10-19T11:17:38.761Z,14.27
2017-10-19T11:20:06.243Z,13.33
2017-10-19T11:22:33.720Z,13.83
2017-10-19T11:25:01.198Z,14.23
2017-10-19T11:27:28.673Z,14.00
2017-10-19T11:29:56.159Z,14.47
2017-10-19T11:32:23.633Z,15.10
2017-10-19T11:34:51.953Z,14.90
2017-10-19T11:37:19.433Z,15.40
2017-10-19T11:39:47.009Z,14.97
2017-10-19T11:42:14.493Z,13.63
2017-10-19T11:44:42.841Z,12.80
2017-10-19T11:47:10.325Z,13.57
2017-10-19T11:49:38.573Z,12.30
2017-10-19T11:52:06.046Z,10.90
2017-10-19T11:54:33.516Z,11.87
2017-10-19T11:57:01.750Z,10.60
2017-10-19T11:59:29.633Z,11.40
2017-10-19T12:01:57.098Z,11.23
2017-10-19T12:04:24.584Z,10.97
2017-10-19T12:06:52.590Z,10.80
2017-10-19T12:09:20.066Z,10.43
2017-10-19T12:11:47.694Z,9.67
2017-10-19T12:14:15.176Z,9.37
2017-10-19T12:16:42.736Z,8.50
2017-10-19T12:19:10.202Z,8.77
2017-10-19T12:21:38.418Z,10.17
2017-10-19T12:24:05.887Z,9.43
2017-10-19T12:26:33.377Z,8.60
2017-10-19T12:29:00.846Z,9.13
2017-10-19T12:31:28.309Z,10.30
2017-10-19T12:33:55.799Z,9.10
2017-10-19T12:36:23.357Z,8.60
2017-10-19T12:38:50.914Z,9.33
2017-10-19T12:41:19.152Z,9.40
2017-10-19T12:43:46.632Z,8.80
2017-10-19T12:46:14.093Z,9.70
2017-10-19T12:48:42.343Z,8.60
2017-10-19T12:51:09.899Z,8.47
2017-10-19T12:53:37.363Z,9.17
2017-10-19T12:56:04.841Z,9.10
2017-10-19T12:58:33.155Z,8.60
2017-10-19T13:01:00.633Z,9.17
2017-10-19T13:03:28.141Z,8.10
2017-10-19T13:05:56.383Z,8.53
2017-10-19T13:08:23.860Z,9.00
2017-10-19T13:10:52.084Z,8.90
2017-10-19T13:13:19.558Z,9.07
2017-10-19T13:15:47.017Z,9.07
2017-10-19T13:18:14.743Z,8.13
2017-10-19T13:20:42.199Z,9.40
2017-10-19T13:23:09.665Z,8.30
2017-10-19T13:25:37.147Z,8.80
2017-10-19T13:28:04.614Z,8.30
2017-10-19T13:30:32.150Z,9.20
2017-10-19T13:32:59.618Z,8.50
2017-10-19T13:35:27.082Z,8.40
2017-10-19T13:37:54.568Z,8.47
2017-10-19T13:40:22.793Z,7.80
2017-10-19T13:42:50.272Z,7.77
2017-10-19T13:45:17.764Z,8.37
2017-10-19T13:47:46.013Z,9.00
2017-10-19T13:50:13.495Z,7.77
2017-10-19T13:52:41.720Z,7.53
2017-10-19T13:55:09.205Z,8.37
2017-10-19T13:57:36.662Z,7.70
2017-10-19T14:00:04.145Z,8.00
2017-10-19T14:02:31.836Z,8.10
2017-10-19T14:04:59.317Z,7.40
2017-10-19T14:07:27.296Z,8.20
2017-10-19T14:09:54.762Z,9.10
2017-10-19T14:12:26.418Z,7.27
2017-10-19T14:14:54.147Z,7.83
2017-10-19T14:17:22.541Z,7.17
2017-10-19T14:19:50.841Z,7.77
2017-10-19T14:22:23.085Z,7.60
2017-10-19T14:24:52.744Z,7.80
2017-10-19T14:27:21.678Z,6.73
2017-10-19T14:29:55.357Z,7.50
2017-10-19T14:32:23.350Z,6.90
2017-10-19T14:34:50.953Z,7.93
2017-10-19T14:37:19.340Z,7.70
2017-10-19T14:39:47.106Z,6.70
2017-10-19T14:42:14.952Z,7.17
2017-10-19T14:44:43.196Z,6.80
2017-10-19T14:47:10.699Z,7.17
2017-10-19T14:49:38.951Z,7.97
2017-10-19T14:52:06.596Z,8.30
2017-10-19T14:54:35.786Z,8.50
2017-10-19T14:57:04.173Z,8.20
2017-10-19T14:59:31.976Z,7.97
2017-10-19T15:02:15.957Z,8.03
2017-10-19T15:04:44.810Z,8.20
2017-10-19T15:07:14.073Z,8.30
2017-10-19T15:09:45.872Z,8.30
2017-10-19T15:12:17.691Z,7.67
2017-10-19T15:14:45.193Z,8.17
2017-10-19T15:17:12.746Z,8.50
2017-10-19T15:19:40.772Z,7.77
2017-10-19T15:22:09.988Z,7.40
2017-10-19T15:24:38.952Z,7.73
2017-10-19T15:27:07.516Z,8.17
2017-10-19T15:29:34.994Z,7.90
2017-10-19T15:32:04.850Z,8.00
2017-10-19T15:34:33.348Z,7.87
2017-10-19T15:37:01.161Z,8.13
2017-10-19T15:39:29.264Z,8.63
2017-10-19T15:41:57.399Z,8.27
2017-10-19T15:44:24.870Z,8.97
2017-10-19T15:46:53.204Z,8.80
2017-10-19T15:49:20.702Z,7.93
2017-10-19T15:51:48.507Z,8.40
2017-10-19T15:54:20.070Z,8.30
2017-10-19T15:56:47.777Z,9.07
2017-10-19T15:59:15.249Z,8.57
2017-10-19T16:01:44.250Z,8.80
2017-10-19T16:04:14.070Z,8.23
2017-10-19T16:06:43.666Z,7.80
2017-10-19T16:09:11.672Z,8.93
2017-10-19T16:11:40.467Z,8.40
2017-10-19T16:14:08.852Z,8.77
2017-10-19T16:16:37.946Z,8.47
2017-10-19T16:19:07.382Z,8.83
2017-10-19T16:21:34.974Z,8.53
2017-10-19T16:24:03.938Z,7.93
2017-10-19T16:26:32.173Z,8.50
2017-10-19T16:29:00.201Z,8.50
2017-10-19T16:31:29.730Z,9.10
2017-10-19T16:33:57.567Z,7.93
2017-10-19T16:36:29.801Z,8.20
2017-10-19T16:38:57.292Z,9.07
2017-10-19T16:41:25.574Z,9.47
2017-10-19T16:43:53.038Z,7.93
2017-10-19T16:46:21.295Z,8.80
2017-10-19T16:48:48.749Z,8.60
2017-10-19T16:51:16.241Z,8.90
2017-10-19T16:53:43.711Z,8.37
2017-10-19T16:56:11.357Z,7.80
2017-10-19T16:58:38.840Z,8.00
2017-10-19T17:01:06.302Z,7.77
2017-10-19T17:03:33.775Z,8.90
2017-10-19T17:06:01.307Z,9.43
2017-10-19T17:08:28.784Z,8.90
2017-10-19T17:10:56.279Z,8.73
2017-10-19T17:13:23.750Z,9.17
2017-10-19T17:15:51.990Z,8.90
2017-10-19T17:18:19.626Z,8.77
2017-10-19T17:20:47.101Z,9.10
2017-10-19T17:23:14.588Z,8.73
2017-10-19T17:25:42.825Z,9.10
2017-10-19T17:28:10.294Z,9.13
2017-10-19T17:30:37.777Z,9.90
2017-10-19T17:33:06.009Z,9.10
2017-10-19T17:35:33.477Z,9.20
2017-10-19T17:38:00.953Z,9.23
2017-10-19T17:40:28.438Z,9.00
2017-10-19T17:42:55.917Z,9.43
2017-10-19T17:45:23.612Z,9.00
2017-10-19T17:47:51.089Z,9.50
2017-10-19T17:50:18.597Z,11.33
2017-10-19T17:52:46.073Z,10.40
2017-10-19T17:55:13.537Z,9.67
2017-10-19T17:57:41.133Z,9.07
2017-10-19T18:00:09.373Z,9.17
2017-10-19T18:02:36.864Z,10.23
2017-10-19T18:05:05.105Z,10.40
2017-10-19T18:07:32.590Z,10.47
2017-10-19T18:10:00.828Z,10.30
2017-10-19T18:12:28.323Z,10.30
2017-10-19T18:14:55.785Z,11.50
2017-10-19T18:17:24.042Z,10.33
2017-10-19T18:19:52.293Z,11.63
2017-10-19T18:22:20.474Z,10.60
2017-10-19T18:24:47.945Z,11.10
2017-10-19T18:27:15.414Z,10.73
2017-10-19T18:29:43.673Z,11.53
2017-10-19T18:32:11.135Z,11.03
2017-10-19T18:34:38.800Z,10.00
2017-10-19T18:37:06.277Z,10.07
2017-10-19T18:39:34.566Z,9.40
2017-10-19T18:42:02.047Z,10.73
2017-10-19T18:44:29.528Z,9.90
2017-10-19T18:46:57.009Z,10.70
2017-10-19T18:49:24.474Z,11.63
2017-10-19T18:51:52.948Z,12.17
2017-10-19T18:54:21.323Z,11.10
2017-10-19T18:56:48.809Z,11.30
2017-10-19T18:59:16.279Z,10.90
2017-10-19T19:01:43.751Z,11.40
2017-10-19T19:04:11.241Z,11.07
2017-10-19T19:06:38.705Z,10.57
2017-10-19T19:09:06.196Z,11.13
2017-10-19T19:11:33.668Z,11.17
2017-10-19T19:14:01.133Z,11.13
2017-10-19T19:16:28.607Z,9.97
2017-10-19T19:18:56.093Z,10.70
2017-10-19T19:21:23.570Z,10.17
2017-10-19T19:23:51.998Z,10.50
2017-10-19T19:26:19.476Z,10.40
2017-10-19T19:28:48.634Z,10.00
2017-10-19T19:31:16.118Z,11.23
2017-10-19T19:33:43.587Z,11.47
2017-10-19T19:36:11.839Z,10.87
2017-10-19T19:38:39.301Z,9.73
2017-10-19T19:41:07.630Z,10.67
2017-10-19T19:43:35.949Z,10.50
2017-10-19T19:46:03.442Z,10.47
2017-10-19T19:48:30.909Z,10.73
2017-10-19T19:50:59.138Z,11.43
2017-10-19T19:53:26.605Z,10.03
2017-10-19T19:55:54.079Z,12.33
2017-10-19T19:58:21.553Z,10.80
2017-10-19T20:00:49.785Z,11.97
2017-10-19T20:03:17.250Z,10.30
2017-10-19T20:05:44.726Z,10.87
2017-10-19T20:08:12.205Z,10.83
2017-10-19T20:10:40.449Z,11.17
2017-10-19T20:13:07.934Z,12.20
2017-10-19T20:15:36.173Z,12.70
2017-10-19T20:18:03.687Z,12.13
2017-10-19T20:20:31.184Z,12.37
2017-10-19T20:22:58.642Z,12.43
2017-10-19T20:25:26.141Z,11.47
2017-10-19T20:27:54.378Z,11.77
2017-10-19T20:30:21.961Z,11.77
2017-10-19T20:32:49.429Z,12.87
2017-10-19T20:35:17.665Z,12.50
2017-10-19T20:37:45.162Z,12.87
2017-10-19T20:40:13.419Z,12.60
2017-10-19T20:42:40.917Z,13.33
2017-10-19T20:45:08.392Z,12.50
2017-10-19T20:47:35.890Z,13.40
2017-10-19T20:50:03.370Z,12.60
2017-10-19T20:52:31.616Z,13.30
2017-10-19T20:54:59.193Z,12.73
2017-10-19T20:57:26.723Z,12.23
2017-10-19T20:59:54.192Z,12.93
2017-10-19T21:02:21.812Z,12.40
2017-10-19T21:04:49.317Z,13.30
2017-10-19T21:07:16.833Z,12.60
2017-10-19T21:09:44.525Z,12.70
2017-10-19T21:12:11.991Z,12.03
2017-10-19T21:14:39.522Z,13.37
2017-10-19T21:17:07.009Z,12.57
2017-10-19T21:19:34.490Z,13.27
2017-10-19T21:22:02.744Z,14.03
2017-10-19T21:24:30.980Z,11.77
2017-10-19T21:26:58.682Z,12.33
2017-10-19T21:29:26.155Z,13.40
2017-10-19T21:31:54.408Z,12.80
2017-10-19T21:34:21.864Z,12.90
2017-10-19T21:36:49.351Z,12.60
2017-10-19T21:39:17.582Z,11.77
2017-10-19T21:41:45.074Z,11.83
2017-10-19T21:44:13.342Z,13.17
2017-10-19T21:46:41.578Z,13.40
2017-10-19T21:49:09.190Z,13.37
2017-10-19T21:51:37.427Z,13.70
2017-10-19T21:54:05.002Z,13.03
2017-10-19T21:56:32.478Z,13.50
2017-10-19T21:59:00.742Z,12.20
2017-10-19T22:01:28.213Z,13.80
2017-10-19T22:03:56.449Z,13.20
2017-10-19T22:06:23.931Z,12.50
2017-10-19T22:08:52.175Z,13.30
2017-10-19T22:11:19.792Z,12.90
2017-10-19T22:13:47.467Z,12.60
2017-10-19T22:16:14.931Z,11.93
2017-10-19T22:18:42.421Z,12.43
2017-10-19T22:21:09.990Z,12.73
2017-10-19T22:23:37.469Z,11.30
2017-10-19T22:26:05.691Z,11.20
2017-10-19T22:28:33.187Z,11.73
2017-10-19T22:31:00.649Z,10.93
2017-10-19T22:33:28.893Z,12.90
2017-10-19T22:35:56.372Z,10.80
2017-10-19T22:38:23.845Z,11.80
2017-10-19T22:40:52.109Z,10.30
2017-10-19T22:43:20.353Z,11.90
2017-10-19T22:45:47.841Z,11.00
2017-10-19T22:48:15.357Z,11.70
2017-10-19T22:50:42.830Z,11.80
2017-10-19T22:53:10.521Z,10.20
2017-10-19T22:55:37.992Z,11.23
2017-10-19T22:58:05.457Z,11.43
2017-10-19T23:00:32.954Z,11.07
2017-10-19T23:03:00.430Z,10.00
2017-10-19T23:05:27.893Z,10.90
2017-10-19T23:07:55.369Z,10.97
2017-10-19T23:10:23.603Z,10.83
2017-10-19T23:12:51.079Z,11.17
2017-10-19T23:15:18.573Z,11.43
2017-10-19T23:17:46.056Z,11.13
2017-10-19T23:20:13.544Z,11.23
2017-10-19T23:22:41.005Z,10.57
2017-10-19T23:25:10.082Z,10.70
2017-10-19T23:27:37.561Z,10.97
2017-10-19T23:30:05.031Z,10.80
2017-10-19T23:32:33.254Z,9.93
2017-10-19T23:35:00.753Z,9.53
2017-10-19T23:37:28.242Z,10.60
2017-10-19T23:39:55.706Z,9.43
2017-10-19T23:42:23.947Z,10.03
2017-10-19T23:44:51.416Z,10.80
2017-10-19T23:47:19.655Z,9.90
2017-10-19T23:49:47.133Z,9.83
2017-10-19T23:52:14.601Z,9.50
2017-10-19T23:54:42.867Z,8.97
2017-10-19T23:57:10.351Z,8.77
2017-10-19T23:59:37.933Z,9.27
